sensor_id;sensor_type;location;lat;lon;timestamp;temperature;humidity
42743;DHT22;28397;44.552;-0.848;2023-04-06T00:01:49;10.80;99.90
42743;DHT22;28397;44.552;-0.848;2023-04-06T00:04:15;10.70;99.90
42743;DHT22;28397;44.552;-0.848;2023-04-06T00:06:41;10.70;99.90
42743;DHT22;28397;44.552;-0.848;2023-04-06T00:09:07;10.70;99.90
42743;DHT22;28397;44.552;-0.848;2023-04-06T00:11:33;10.60;99.90
42743;DHT22;28397;44.552;-0.848;2023-04-06T00:14:01;10.70;99.90
42743;DHT22;28397;44.552;-0.848;2023-04-06T00:16:27;10.60;99.90
42743;DHT22;28397;44.552;-0.848;2023-04-06T00:18:53;10.60;99.90
42743;DHT22;28397;44.552;-0.848;2023-04-06T00:21:18;10.70;99.90
42743;DHT22;28397;44.552;-0.848;2023-04-06T00:23:44;10.60;99.90
42743;DHT22;28397;44.552;-0.848;2023-04-06T00:26:10;10.60;99.90
42743;DHT22;28397;44.552;-0.848;2023-04-06T00:28:37;10.50;99.90
42743;DHT22;28397;44.552;-0.848;2023-04-06T00:31:03;10.60;99.90
42743;DHT22;28397;44.552;-0.848;2023-04-06T00:33:28;10.50;99.90
42743;DHT22;28397;44.552;-0.848;2023-04-06T00:35:54;10.60;99.90
42743;DHT22;28397;44.552;-0.848;2023-04-06T00:38:21;10.60;99.90
42743;DHT22;28397;44.552;-0.848;2023-04-06T00:40:47;10.60;99.90
42743;DHT22;28397;44.552;-0.848;2023-04-06T00:43:12;10.70;99.90
42743;DHT22;28397;44.552;-0.848;2023-04-06T00:45:40;10.60;99.90
42743;DHT22;28397;44.552;-0.848;2023-04-06T00:48:06;10.50;99.90
42743;DHT22;28397;44.552;-0.848;2023-04-06T00:50:32;10.40;99.90
42743;DHT22;28397;44.552;-0.848;2023-04-06T00:52:59;10.40;99.90
42743;DHT22;28397;44.552;-0.848;2023-04-06T00:55:26;10.50;99.90
42743;DHT22;28397;44.552;-0.848;2023-04-06T00:57:52;10.40;99.90
42743;DHT22;28397;44.552;-0.848;2023-04-06T01:00:18;10.40;99.90
42743;DHT22;28397;44.552;-0.848;2023-04-06T01:02:43;10.40;99.90
42743;DHT22;28397;44.552;-0.848;2023-04-06T01:05:10;10.50;99.90
42743;DHT22;28397;44.552;-0.848;2023-04-06T01:07:36;10.50;99.90
42743;DHT22;28397;44.552;-0.848;2023-04-06T01:10:02;10.40;99.90
42743;DHT22;28397;44.552;-0.848;2023-04-06T01:12:29;10.40;99.90
42743;DHT22;28397;44.552;-0.848;2023-04-06T01:14:55;10.30;99.90
42743;DHT22;28397;44.552;-0.848;2023-04-06T01:17:21;10.30;99.90
42743;DHT22;28397;44.552;-0.848;2023-04-06T01:19:47;10.20;99.90
42743;DHT22;28397;44.552;-0.848;2023-04-06T01:22:18;10.10;99.90
42743;DHT22;28397;44.552;-0.848;2023-04-06T01:24:44;10.20;99.90
42743;DHT22;28397;44.552;-0.848;2023-04-06T01:27:10;10.20;99.90
42743;DHT22;28397;44.552;-0.848;2023-04-06T01:29:36;10.10;99.90
42743;DHT22;28397;44.552;-0.848;2023-04-06T01:32:02;10.10;99.90
42743;DHT22;28397;44.552;-0.848;2023-04-06T01:34:28;10.10;99.90
42743;DHT22;28397;44.552;-0.848;2023-04-06T01:36:53;10.10;99.90
42743;DHT22;28397;44.552;-0.848;2023-04-06T01:39:20;10.10;99.90
42743;DHT22;28397;44.552;-0.848;2023-04-06T01:41:45;10.20;99.90
42743;DHT22;28397;44.552;-0.848;2023-04-06T01:44:14;10.20;99.90
42743;DHT22;28397;44.552;-0.848;2023-04-06T01:46:40;10.10;99.90
42743;DHT22;28397;44.552;-0.848;2023-04-06T01:49:06;10.00;99.90
42743;DHT22;28397;44.552;-0.848;2023-04-06T01:51:31;10.10;99.90
42743;DHT22;28397;44.552;-0.848;2023-04-06T01:53:57;10.10;99.90
42743;DHT22;28397;44.552;-0.848;2023-04-06T01:56:23;10.00;99.90
42743;DHT22;28397;44.552;-0.848;2023-04-06T01:58:49;10.00;99.90
42743;DHT22;28397;44.552;-0.848;2023-04-06T02:01:15;10.00;99.90
42743;DHT22;28397;44.552;-0.848;2023-04-06T02:03:41;9.90;99.90
42743;DHT22;28397;44.552;-0.848;2023-04-06T02:06:07;9.90;99.90
42743;DHT22;28397;44.552;-0.848;2023-04-06T02:08:32;9.80;99.90
42743;DHT22;28397;44.552;-0.848;2023-04-06T02:10:58;9.90;99.90
42743;DHT22;28397;44.552;-0.848;2023-04-06T02:13:24;9.90;99.90
42743;DHT22;28397;44.552;-0.848;2023-04-06T02:15:49;9.80;99.90
42743;DHT22;28397;44.552;-0.848;2023-04-06T02:18:15;9.70;99.90
42743;DHT22;28397;44.552;-0.848;2023-04-06T02:20:43;9.70;99.90
42743;DHT22;28397;44.552;-0.848;2023-04-06T02:23:08;9.60;99.90
42743;DHT22;28397;44.552;-0.848;2023-04-06T02:25:34;9.60;99.90
42743;DHT22;28397;44.552;-0.848;2023-04-06T02:28:00;9.60;99.90
42743;DHT22;28397;44.552;-0.848;2023-04-06T02:30:26;9.50;99.90
42743;DHT22;28397;44.552;-0.848;2023-04-06T02:32:52;9.40;99.90
42743;DHT22;28397;44.552;-0.848;2023-04-06T02:35:17;9.40;99.90
42743;DHT22;28397;44.552;-0.848;2023-04-06T02:37:43;9.30;99.90
42743;DHT22;28397;44.552;-0.848;2023-04-06T02:40:09;9.30;99.90
42743;DHT22;28397;44.552;-0.848;2023-04-06T02:42:35;9.30;99.90
42743;DHT22;28397;44.552;-0.848;2023-04-06T02:45:01;9.30;99.90
42743;DHT22;28397;44.552;-0.848;2023-04-06T02:47:27;9.30;99.90
42743;DHT22;28397;44.552;-0.848;2023-04-06T02:49:52;9.20;99.90
42743;DHT22;28397;44.552;-0.848;2023-04-06T02:52:18;9.20;99.90
42743;DHT22;28397;44.552;-0.848;2023-04-06T02:54:44;9.20;99.90
42743;DHT22;28397;44.552;-0.848;2023-04-06T02:57:10;9.30;99.90
42743;DHT22;28397;44.552;-0.848;2023-04-06T02:59:35;9.30;99.90
42743;DHT22;28397;44.552;-0.848;2023-04-06T03:02:01;9.30;99.90
42743;DHT22;28397;44.552;-0.848;2023-04-06T03:04:27;9.10;99.90
42743;DHT22;28397;44.552;-0.848;2023-04-06T03:06:54;9.00;99.90
42743;DHT22;28397;44.552;-0.848;2023-04-06T03:09:20;9.00;99.90
42743;DHT22;28397;44.552;-0.848;2023-04-06T03:11:46;9.00;99.90
42743;DHT22;28397;44.552;-0.848;2023-04-06T03:14:12;8.90;99.90
42743;DHT22;28397;44.552;-0.848;2023-04-06T03:16:37;8.90;99.90
42743;DHT22;28397;44.552;-0.848;2023-04-06T03:19:03;8.90;99.90
42743;DHT22;28397;44.552;-0.848;2023-04-06T03:21:28;8.90;99.90
42743;DHT22;28397;44.552;-0.848;2023-04-06T03:23:54;8.80;99.90
42743;DHT22;28397;44.552;-0.848;2023-04-06T03:26:20;8.70;99.90
42743;DHT22;28397;44.552;-0.848;2023-04-06T03:28:47;8.50;99.90
42743;DHT22;28397;44.552;-0.848;2023-04-06T03:31:13;8.40;99.90
42743;DHT22;28397;44.552;-0.848;2023-04-06T03:33:39;8.40;99.90
42743;DHT22;28397;44.552;-0.848;2023-04-06T03:36:05;8.50;99.90
42743;DHT22;28397;44.552;-0.848;2023-04-06T03:38:32;8.60;99.90
42743;DHT22;28397;44.552;-0.848;2023-04-06T03:40:57;8.70;99.90
42743;DHT22;28397;44.552;-0.848;2023-04-06T03:43:23;8.60;99.90
42743;DHT22;28397;44.552;-0.848;2023-04-06T03:45:49;8.60;99.90
42743;DHT22;28397;44.552;-0.848;2023-04-06T03:48:14;8.60;99.90
42743;DHT22;28397;44.552;-0.848;2023-04-06T03:50:40;8.40;99.90
42743;DHT22;28397;44.552;-0.848;2023-04-06T03:53:06;8.30;99.90
42743;DHT22;28397;44.552;-0.848;2023-04-06T03:55:32;8.30;99.90
42743;DHT22;28397;44.552;-0.848;2023-04-06T03:57:57;8.40;99.90
42743;DHT22;28397;44.552;-0.848;2023-04-06T04:00:23;8.30;99.90
42743;DHT22;28397;44.552;-0.848;2023-04-06T04:02:49;8.40;99.90
42743;DHT22;28397;44.552;-0.848;2023-04-06T04:05:14;8.40;99.90
42743;DHT22;28397;44.552;-0.848;2023-04-06T04:07:40;8.40;99.90
42743;DHT22;28397;44.552;-0.848;2023-04-06T04:10:06;8.40;99.90
42743;DHT22;28397;44.552;-0.848;2023-04-06T04:12:32;8.40;99.90
42743;DHT22;28397;44.552;-0.848;2023-04-06T04:14:57;8.50;99.90
42743;DHT22;28397;44.552;-0.848;2023-04-06T04:17:24;8.60;99.90
42743;DHT22;28397;44.552;-0.848;2023-04-06T04:19:50;8.60;99.90
42743;DHT22;28397;44.552;-0.848;2023-04-06T04:22:16;8.70;99.90
42743;DHT22;28397;44.552;-0.848;2023-04-06T04:24:41;8.60;99.90
42743;DHT22;28397;44.552;-0.848;2023-04-06T04:27:07;8.60;99.90
42743;DHT22;28397;44.552;-0.848;2023-04-06T04:29:33;8.60;99.90
42743;DHT22;28397;44.552;-0.848;2023-04-06T04:31:58;8.60;99.90
42743;DHT22;28397;44.552;-0.848;2023-04-06T04:34:24;8.60;99.90
42743;DHT22;28397;44.552;-0.848;2023-04-06T04:36:51;8.60;99.90
42743;DHT22;28397;44.552;-0.848;2023-04-06T04:39:16;8.60;99.90
42743;DHT22;28397;44.552;-0.848;2023-04-06T04:41:42;8.60;99.90
42743;DHT22;28397;44.552;-0.848;2023-04-06T04:44:08;8.60;99.90
42743;DHT22;28397;44.552;-0.848;2023-04-06T04:46:33;8.60;99.90
42743;DHT22;28397;44.552;-0.848;2023-04-06T04:48:59;8.60;99.90
42743;DHT22;28397;44.552;-0.848;2023-04-06T04:51:25;8.60;99.90
42743;DHT22;28397;44.552;-0.848;2023-04-06T04:53:51;8.60;99.90
42743;DHT22;28397;44.552;-0.848;2023-04-06T04:56:17;8.70;99.90
42743;DHT22;28397;44.552;-0.848;2023-04-06T04:58:43;8.70;99.90
42743;DHT22;28397;44.552;-0.848;2023-04-06T05:01:08;8.70;99.90
42743;DHT22;28397;44.552;-0.848;2023-04-06T05:03:36;8.80;99.90
42743;DHT22;28397;44.552;-0.848;2023-04-06T05:06:04;8.80;99.90
42743;DHT22;28397;44.552;-0.848;2023-04-06T05:08:30;8.80;99.90
42743;DHT22;28397;44.552;-0.848;2023-04-06T05:10:56;8.80;99.90
42743;DHT22;28397;44.552;-0.848;2023-04-06T05:13:22;8.90;99.90
42743;DHT22;28397;44.552;-0.848;2023-04-06T05:15:47;8.90;99.90
42743;DHT22;28397;44.552;-0.848;2023-04-06T05:18:13;9.00;99.90
42743;DHT22;28397;44.552;-0.848;2023-04-06T05:20:39;9.00;99.90
42743;DHT22;28397;44.552;-0.848;2023-04-06T05:23:05;9.00;99.90
42743;DHT22;28397;44.552;-0.848;2023-04-06T05:25:31;9.00;99.90
42743;DHT22;28397;44.552;-0.848;2023-04-06T05:27:58;9.00;99.90
42743;DHT22;28397;44.552;-0.848;2023-04-06T05:30:24;9.00;99.90
42743;DHT22;28397;44.552;-0.848;2023-04-06T05:32:50;9.10;99.90
42743;DHT22;28397;44.552;-0.848;2023-04-06T05:35:16;9.10;99.90
42743;DHT22;28397;44.552;-0.848;2023-04-06T05:37:42;9.00;99.90
42743;DHT22;28397;44.552;-0.848;2023-04-06T05:40:08;9.10;99.90
42743;DHT22;28397;44.552;-0.848;2023-04-06T05:42:38;9.00;99.90
42743;DHT22;28397;44.552;-0.848;2023-04-06T05:45:08;9.00;99.90
42743;DHT22;28397;44.552;-0.848;2023-04-06T05:47:34;9.10;99.90
42743;DHT22;28397;44.552;-0.848;2023-04-06T05:50:00;9.10;99.90
42743;DHT22;28397;44.552;-0.848;2023-04-06T05:52:26;9.20;99.90
42743;DHT22;28397;44.552;-0.848;2023-04-06T05:54:52;9.20;99.90
42743;DHT22;28397;44.552;-0.848;2023-04-06T05:57:17;9.10;99.90
42743;DHT22;28397;44.552;-0.848;2023-04-06T05:59:43;9.20;99.90
42743;DHT22;28397;44.552;-0.848;2023-04-06T06:02:09;9.20;99.90
42743;DHT22;28397;44.552;-0.848;2023-04-06T06:04:35;9.20;99.90
42743;DHT22;28397;44.552;-0.848;2023-04-06T06:07:00;9.20;99.90
42743;DHT22;28397;44.552;-0.848;2023-04-06T06:09:26;9.20;99.90
42743;DHT22;28397;44.552;-0.848;2023-04-06T06:11:52;9.20;99.90
42743;DHT22;28397;44.552;-0.848;2023-04-06T06:14:18;9.20;99.90
42743;DHT22;28397;44.552;-0.848;2023-04-06T06:16:43;9.30;99.90
42743;DHT22;28397;44.552;-0.848;2023-04-06T06:19:09;9.30;99.90
42743;DHT22;28397;44.552;-0.848;2023-04-06T06:21:35;9.30;99.90
42743;DHT22;28397;44.552;-0.848;2023-04-06T06:24:01;9.30;99.90
42743;DHT22;28397;44.552;-0.848;2023-04-06T06:26:27;9.30;99.90
42743;DHT22;28397;44.552;-0.848;2023-04-06T06:28:53;9.40;99.90
42743;DHT22;28397;44.552;-0.848;2023-04-06T06:31:19;9.40;99.90
42743;DHT22;28397;44.552;-0.848;2023-04-06T06:33:48;9.50;99.90
42743;DHT22;28397;44.552;-0.848;2023-04-06T06:36:16;9.60;99.90
42743;DHT22;28397;44.552;-0.848;2023-04-06T06:38:42;9.60;99.90
42743;DHT22;28397;44.552;-0.848;2023-04-06T06:41:08;9.70;99.90
42743;DHT22;28397;44.552;-0.848;2023-04-06T06:43:34;9.70;99.90
42743;DHT22;28397;44.552;-0.848;2023-04-06T06:45:59;9.80;99.90
42743;DHT22;28397;44.552;-0.848;2023-04-06T06:48:25;9.80;99.90
42743;DHT22;28397;44.552;-0.848;2023-04-06T06:50:51;9.80;99.90
42743;DHT22;28397;44.552;-0.848;2023-04-06T06:53:17;9.80;99.90
42743;DHT22;28397;44.552;-0.848;2023-04-06T06:55:42;9.90;99.90
42743;DHT22;28397;44.552;-0.848;2023-04-06T06:58:09;9.90;99.90
42743;DHT22;28397;44.552;-0.848;2023-04-06T07:00:35;10.00;99.90
42743;DHT22;28397;44.552;-0.848;2023-04-06T07:03:01;10.00;99.90
42743;DHT22;28397;44.552;-0.848;2023-04-06T07:05:27;10.10;99.90
42743;DHT22;28397;44.552;-0.848;2023-04-06T07:07:53;10.10;99.90
42743;DHT22;28397;44.552;-0.848;2023-04-06T07:10:19;10.20;99.90
42743;DHT22;28397;44.552;-0.848;2023-04-06T07:12:45;10.40;99.90
42743;DHT22;28397;44.552;-0.848;2023-04-06T07:15:11;10.40;99.90
42743;DHT22;28397;44.552;-0.848;2023-04-06T07:17:37;10.40;99.90
42743;DHT22;28397;44.552;-0.848;2023-04-06T07:20:03;10.50;99.90
42743;DHT22;28397;44.552;-0.848;2023-04-06T07:22:29;10.50;99.90
42743;DHT22;28397;44.552;-0.848;2023-04-06T07:24:54;10.50;99.90
42743;DHT22;28397;44.552;-0.848;2023-04-06T07:27:20;10.50;99.90
42743;DHT22;28397;44.552;-0.848;2023-04-06T07:29:46;10.70;99.90
42743;DHT22;28397;44.552;-0.848;2023-04-06T07:32:12;10.70;99.90
42743;DHT22;28397;44.552;-0.848;2023-04-06T07:34:38;10.70;99.90
42743;DHT22;28397;44.552;-0.848;2023-04-06T07:37:03;10.80;99.90
42743;DHT22;28397;44.552;-0.848;2023-04-06T07:39:29;10.80;99.90
42743;DHT22;28397;44.552;-0.848;2023-04-06T07:41:55;10.80;99.90
42743;DHT22;28397;44.552;-0.848;2023-04-06T07:44:21;10.80;99.90
42743;DHT22;28397;44.552;-0.848;2023-04-06T07:46:46;10.90;99.90
42743;DHT22;28397;44.552;-0.848;2023-04-06T07:49:12;11.00;99.90
42743;DHT22;28397;44.552;-0.848;2023-04-06T07:51:39;11.10;99.90
42743;DHT22;28397;44.552;-0.848;2023-04-06T07:54:05;11.10;99.90
42743;DHT22;28397;44.552;-0.848;2023-04-06T07:56:31;11.20;99.90
42743;DHT22;28397;44.552;-0.848;2023-04-06T07:58:57;11.20;99.90
42743;DHT22;28397;44.552;-0.848;2023-04-06T08:01:23;11.20;99.90
42743;DHT22;28397;44.552;-0.848;2023-04-06T08:03:50;11.20;99.90
42743;DHT22;28397;44.552;-0.848;2023-04-06T08:06:16;11.20;99.90
42743;DHT22;28397;44.552;-0.848;2023-04-06T08:08:42;11.20;99.90
42743;DHT22;28397;44.552;-0.848;2023-04-06T08:11:08;11.10;99.90
42743;DHT22;28397;44.552;-0.848;2023-04-06T08:13:34;11.10;99.90
42743;DHT22;28397;44.552;-0.848;2023-04-06T08:16:00;11.20;99.90
42743;DHT22;28397;44.552;-0.848;2023-04-06T08:18:26;11.20;99.90
42743;DHT22;28397;44.552;-0.848;2023-04-06T08:20:52;11.20;99.90
42743;DHT22;28397;44.552;-0.848;2023-04-06T08:23:17;11.30;99.90
42743;DHT22;28397;44.552;-0.848;2023-04-06T08:25:43;11.30;99.90
42743;DHT22;28397;44.552;-0.848;2023-04-06T08:28:09;11.40;99.90
42743;DHT22;28397;44.552;-0.848;2023-04-06T08:30:35;11.40;99.90
42743;DHT22;28397;44.552;-0.848;2023-04-06T08:33:01;11.40;99.90
42743;DHT22;28397;44.552;-0.848;2023-04-06T08:35:27;11.60;99.90
42743;DHT22;28397;44.552;-0.848;2023-04-06T08:37:53;11.70;99.90
42743;DHT22;28397;44.552;-0.848;2023-04-06T08:40:19;11.80;99.90
42743;DHT22;28397;44.552;-0.848;2023-04-06T08:42:56;11.90;99.90
42743;DHT22;28397;44.552;-0.848;2023-04-06T08:45:25;12.00;99.90
42743;DHT22;28397;44.552;-0.848;2023-04-06T08:47:51;12.00;99.90
42743;DHT22;28397;44.552;-0.848;2023-04-06T08:50:21;12.20;99.90
42743;DHT22;28397;44.552;-0.848;2023-04-06T08:52:48;12.30;99.90
42743;DHT22;28397;44.552;-0.848;2023-04-06T08:55:14;12.40;99.90
42743;DHT22;28397;44.552;-0.848;2023-04-06T08:57:41;12.40;99.90
42743;DHT22;28397;44.552;-0.848;2023-04-06T09:00:09;12.40;99.90
42743;DHT22;28397;44.552;-0.848;2023-04-06T09:02:39;12.50;99.90
42743;DHT22;28397;44.552;-0.848;2023-04-06T09:05:07;12.70;99.90
42743;DHT22;28397;44.552;-0.848;2023-04-06T09:07:33;12.70;99.90
42743;DHT22;28397;44.552;-0.848;2023-04-06T09:09:59;12.70;99.90
42743;DHT22;28397;44.552;-0.848;2023-04-06T09:12:27;12.80;99.90
42743;DHT22;28397;44.552;-0.848;2023-04-06T09:14:53;12.80;99.90
42743;DHT22;28397;44.552;-0.848;2023-04-06T09:17:21;12.80;99.90
42743;DHT22;28397;44.552;-0.848;2023-04-06T09:19:48;12.80;99.90
42743;DHT22;28397;44.552;-0.848;2023-04-06T09:22:14;12.70;99.90
42743;DHT22;28397;44.552;-0.848;2023-04-06T09:24:53;12.70;99.90
42743;DHT22;28397;44.552;-0.848;2023-04-06T09:27:34;12.80;99.90
42743;DHT22;28397;44.552;-0.848;2023-04-06T09:30:08;13.10;99.90
42743;DHT22;28397;44.552;-0.848;2023-04-06T09:32:52;13.10;99.90
42743;DHT22;28397;44.552;-0.848;2023-04-06T09:35:19;13.20;99.90
42743;DHT22;28397;44.552;-0.848;2023-04-06T09:37:49;13.10;99.90
42743;DHT22;28397;44.552;-0.848;2023-04-06T09:40:15;13.20;99.90
42743;DHT22;28397;44.552;-0.848;2023-04-06T09:42:45;13.30;99.90
42743;DHT22;28397;44.552;-0.848;2023-04-06T09:45:12;13.40;99.90
42743;DHT22;28397;44.552;-0.848;2023-04-06T09:47:40;13.40;99.90
42743;DHT22;28397;44.552;-0.848;2023-04-06T09:50:07;13.30;99.90
42743;DHT22;28397;44.552;-0.848;2023-04-06T09:52:50;13.30;99.90
42743;DHT22;28397;44.552;-0.848;2023-04-06T09:55:26;13.30;99.90
42743;DHT22;28397;44.552;-0.848;2023-04-06T09:58:16;13.20;99.90
42743;DHT22;28397;44.552;-0.848;2023-04-06T10:00:57;13.30;99.90
42743;DHT22;28397;44.552;-0.848;2023-04-06T10:03:43;13.40;99.90
42743;DHT22;28397;44.552;-0.848;2023-04-06T10:06:11;13.50;99.90
42743;DHT22;28397;44.552;-0.848;2023-04-06T10:08:40;13.60;99.90
42743;DHT22;28397;44.552;-0.848;2023-04-06T10:11:07;13.60;99.90
42743;DHT22;28397;44.552;-0.848;2023-04-06T10:13:34;13.80;99.90
42743;DHT22;28397;44.552;-0.848;2023-04-06T10:16:00;13.90;99.90
42743;DHT22;28397;44.552;-0.848;2023-04-06T10:18:29;13.80;99.90
42743;DHT22;28397;44.552;-0.848;2023-04-06T10:21:06;13.90;99.90
42743;DHT22;28397;44.552;-0.848;2023-04-06T10:23:43;14.00;99.90
42743;DHT22;28397;44.552;-0.848;2023-04-06T10:26:14;14.20;99.90
42743;DHT22;28397;44.552;-0.848;2023-04-06T10:28:43;14.00;99.90
42743;DHT22;28397;44.552;-0.848;2023-04-06T10:31:09;14.00;99.90
42743;DHT22;28397;44.552;-0.848;2023-04-06T10:33:35;14.30;99.90
42743;DHT22;28397;44.552;-0.848;2023-04-06T10:36:14;14.40;99.90
42743;DHT22;28397;44.552;-0.848;2023-04-06T10:38:41;14.50;99.90
42743;DHT22;28397;44.552;-0.848;2023-04-06T10:41:09;14.50;99.90
42743;DHT22;28397;44.552;-0.848;2023-04-06T10:43:36;14.60;99.90
42743;DHT22;28397;44.552;-0.848;2023-04-06T10:46:03;14.50;99.90
42743;DHT22;28397;44.552;-0.848;2023-04-06T10:48:47;14.60;99.90
42743;DHT22;28397;44.552;-0.848;2023-04-06T10:51:14;14.40;99.90
42743;DHT22;28397;44.552;-0.848;2023-04-06T10:53:45;14.50;99.90
42743;DHT22;28397;44.552;-0.848;2023-04-06T10:56:18;14.50;99.90
42743;DHT22;28397;44.552;-0.848;2023-04-06T10:58:51;14.60;99.90
42743;DHT22;28397;44.552;-0.848;2023-04-06T11:01:19;14.70;99.90
42743;DHT22;28397;44.552;-0.848;2023-04-06T11:03:45;14.80;99.90
42743;DHT22;28397;44.552;-0.848;2023-04-06T11:06:21;15.10;99.90
42743;DHT22;28397;44.552;-0.848;2023-04-06T11:08:47;14.80;99.90
42743;DHT22;28397;44.552;-0.848;2023-04-06T11:11:14;15.00;99.90
42743;DHT22;28397;44.552;-0.848;2023-04-06T11:16:11;15.30;99.90
42743;DHT22;28397;44.552;-0.848;2023-04-06T11:18:37;15.40;99.90
42743;DHT22;28397;44.552;-0.848;2023-04-06T11:21:03;15.40;99.90
42743;DHT22;28397;44.552;-0.848;2023-04-06T11:23:28;15.40;99.90
42743;DHT22;28397;44.552;-0.848;2023-04-06T11:25:54;15.30;99.90
42743;DHT22;28397;44.552;-0.848;2023-04-06T11:28:20;15.50;99.90
42743;DHT22;28397;44.552;-0.848;2023-04-06T11:30:46;15.40;99.90
42743;DHT22;28397;44.552;-0.848;2023-04-06T11:33:20;15.30;99.90
42743;DHT22;28397;44.552;-0.848;2023-04-06T11:35:47;15.40;99.90
42743;DHT22;28397;44.552;-0.848;2023-04-06T11:38:12;15.40;99.90
42743;DHT22;28397;44.552;-0.848;2023-04-06T11:40:38;15.60;99.90
42743;DHT22;28397;44.552;-0.848;2023-04-06T11:43:04;15.70;99.90
42743;DHT22;28397;44.552;-0.848;2023-04-06T11:45:42;15.80;99.90
42743;DHT22;28397;44.552;-0.848;2023-04-06T11:48:18;15.70;99.90
42743;DHT22;28397;44.552;-0.848;2023-04-06T11:50:46;15.80;99.90
42743;DHT22;28397;44.552;-0.848;2023-04-06T11:53:13;15.90;99.90
42743;DHT22;28397;44.552;-0.848;2023-04-06T11:55:38;16.00;99.90
42743;DHT22;28397;44.552;-0.848;2023-04-06T11:58:05;15.80;99.90
42743;DHT22;28397;44.552;-0.848;2023-04-06T12:00:31;15.90;99.90
42743;DHT22;28397;44.552;-0.848;2023-04-06T12:03:00;16.00;99.90
42743;DHT22;28397;44.552;-0.848;2023-04-06T12:05:26;16.20;99.90
42743;DHT22;28397;44.552;-0.848;2023-04-06T12:07:51;16.20;99.90
42743;DHT22;28397;44.552;-0.848;2023-04-06T12:10:17;16.10;99.90
42743;DHT22;28397;44.552;-0.848;2023-04-06T12:12:43;16.10;99.90
42743;DHT22;28397;44.552;-0.848;2023-04-06T12:15:09;16.10;99.90
42743;DHT22;28397;44.552;-0.848;2023-04-06T12:17:35;16.20;99.90
42743;DHT22;28397;44.552;-0.848;2023-04-06T12:20:01;16.30;99.90
42743;DHT22;28397;44.552;-0.848;2023-04-06T12:22:28;16.30;99.90
42743;DHT22;28397;44.552;-0.848;2023-04-06T12:24:53;16.40;99.90
42743;DHT22;28397;44.552;-0.848;2023-04-06T12:27:19;16.40;99.90
42743;DHT22;28397;44.552;-0.848;2023-04-06T12:29:46;16.40;99.90
42743;DHT22;28397;44.552;-0.848;2023-04-06T12:32:12;16.40;99.90
42743;DHT22;28397;44.552;-0.848;2023-04-06T12:34:38;16.40;99.90
42743;DHT22;28397;44.552;-0.848;2023-04-06T12:37:04;16.50;99.90
42743;DHT22;28397;44.552;-0.848;2023-04-06T12:39:29;16.40;99.90
42743;DHT22;28397;44.552;-0.848;2023-04-06T12:41:55;16.60;99.90
42743;DHT22;28397;44.552;-0.848;2023-04-06T12:44:22;16.60;99.90
42743;DHT22;28397;44.552;-0.848;2023-04-06T12:46:48;16.70;99.90
42743;DHT22;28397;44.552;-0.848;2023-04-06T12:49:14;16.70;99.90
42743;DHT22;28397;44.552;-0.848;2023-04-06T12:51:42;17.00;99.90
42743;DHT22;28397;44.552;-0.848;2023-04-06T12:54:07;17.10;99.90
42743;DHT22;28397;44.552;-0.848;2023-04-06T12:56:33;17.20;99.90
42743;DHT22;28397;44.552;-0.848;2023-04-06T12:58:59;17.10;99.90
42743;DHT22;28397;44.552;-0.848;2023-04-06T13:01:24;17.00;99.90
42743;DHT22;28397;44.552;-0.848;2023-04-06T13:03:51;17.20;99.90
42743;DHT22;28397;44.552;-0.848;2023-04-06T13:06:17;17.40;99.90
42743;DHT22;28397;44.552;-0.848;2023-04-06T13:08:43;17.50;99.90
42743;DHT22;28397;44.552;-0.848;2023-04-06T13:11:08;17.30;99.90
42743;DHT22;28397;44.552;-0.848;2023-04-06T13:13:35;17.30;99.90
42743;DHT22;28397;44.552;-0.848;2023-04-06T13:16:03;17.20;99.90
42743;DHT22;28397;44.552;-0.848;2023-04-06T13:18:30;17.40;99.90
42743;DHT22;28397;44.552;-0.848;2023-04-06T13:20:56;17.60;99.90
42743;DHT22;28397;44.552;-0.848;2023-04-06T13:23:23;17.70;99.90
42743;DHT22;28397;44.552;-0.848;2023-04-06T13:25:57;17.80;99.90
42743;DHT22;28397;44.552;-0.848;2023-04-06T13:28:24;17.80;99.90
42743;DHT22;28397;44.552;-0.848;2023-04-06T13:30:49;17.80;99.90
42743;DHT22;28397;44.552;-0.848;2023-04-06T13:33:15;17.80;99.90
42743;DHT22;28397;44.552;-0.848;2023-04-06T13:35:44;17.80;99.90
42743;DHT22;28397;44.552;-0.848;2023-04-06T13:38:11;17.90;99.90
42743;DHT22;28397;44.552;-0.848;2023-04-06T13:40:39;17.90;99.90
42743;DHT22;28397;44.552;-0.848;2023-04-06T13:43:05;18.00;99.90
42743;DHT22;28397;44.552;-0.848;2023-04-06T13:45:31;17.90;99.90
42743;DHT22;28397;44.552;-0.848;2023-04-06T13:47:57;18.00;99.90
42743;DHT22;28397;44.552;-0.848;2023-04-06T13:50:25;18.00;99.90
42743;DHT22;28397;44.552;-0.848;2023-04-06T13:52:51;17.70;99.90
42743;DHT22;28397;44.552;-0.848;2023-04-06T13:55:16;17.50;99.90
42743;DHT22;28397;44.552;-0.848;2023-04-06T13:57:42;17.60;99.90
42743;DHT22;28397;44.552;-0.848;2023-04-06T14:00:08;17.60;99.90
42743;DHT22;28397;44.552;-0.848;2023-04-06T14:02:35;17.80;99.90
42743;DHT22;28397;44.552;-0.848;2023-04-06T14:05:00;17.90;99.90
42743;DHT22;28397;44.552;-0.848;2023-04-06T14:07:26;17.80;99.90
42743;DHT22;28397;44.552;-0.848;2023-04-06T14:09:52;17.90;99.90
42743;DHT22;28397;44.552;-0.848;2023-04-06T14:12:17;18.00;99.90
42743;DHT22;28397;44.552;-0.848;2023-04-06T14:14:43;17.90;99.90
42743;DHT22;28397;44.552;-0.848;2023-04-06T14:17:08;17.80;99.90
42743;DHT22;28397;44.552;-0.848;2023-04-06T14:19:34;17.80;99.90
42743;DHT22;28397;44.552;-0.848;2023-04-06T14:22:01;18.00;99.90
42743;DHT22;28397;44.552;-0.848;2023-04-06T14:24:27;18.30;99.90
42743;DHT22;28397;44.552;-0.848;2023-04-06T14:26:53;18.40;99.90
42743;DHT22;28397;44.552;-0.848;2023-04-06T14:29:18;18.10;99.90
42743;DHT22;28397;44.552;-0.848;2023-04-06T14:31:47;17.90;99.90
42743;DHT22;28397;44.552;-0.848;2023-04-06T14:34:13;17.80;99.90
42743;DHT22;28397;44.552;-0.848;2023-04-06T14:36:39;18.20;99.90
42743;DHT22;28397;44.552;-0.848;2023-04-06T14:39:06;17.90;99.90
42743;DHT22;28397;44.552;-0.848;2023-04-06T14:41:33;18.00;99.90
42743;DHT22;28397;44.552;-0.848;2023-04-06T14:43:59;18.40;99.90
42743;DHT22;28397;44.552;-0.848;2023-04-06T14:46:25;18.30;99.90
42743;DHT22;28397;44.552;-0.848;2023-04-06T14:48:54;18.20;99.90
42743;DHT22;28397;44.552;-0.848;2023-04-06T14:51:21;18.00;99.90
42743;DHT22;28397;44.552;-0.848;2023-04-06T14:53:47;18.00;99.90
42743;DHT22;28397;44.552;-0.848;2023-04-06T14:56:13;18.00;99.90
42743;DHT22;28397;44.552;-0.848;2023-04-06T14:58:38;18.10;99.90
42743;DHT22;28397;44.552;-0.848;2023-04-06T15:01:04;18.00;99.90
42743;DHT22;28397;44.552;-0.848;2023-04-06T15:03:31;18.00;99.90
42743;DHT22;28397;44.552;-0.848;2023-04-06T15:05:57;18.20;99.90
42743;DHT22;28397;44.552;-0.848;2023-04-06T15:08:23;18.10;99.90
42743;DHT22;28397;44.552;-0.848;2023-04-06T15:10:50;18.10;99.90
42743;DHT22;28397;44.552;-0.848;2023-04-06T15:13:16;17.90;99.90
42743;DHT22;28397;44.552;-0.848;2023-04-06T15:15:43;17.90;99.90
42743;DHT22;28397;44.552;-0.848;2023-04-06T15:18:10;18.40;99.90
42743;DHT22;28397;44.552;-0.848;2023-04-06T15:20:36;18.60;99.90